Airfield :







YOU CAN JOIN US ON...

 
LOGIN :

Register | Disclaimer

   EN    FR    IT 

 









Legend :    VFR   Marginal VFR   IFR   Intensive IFR   Very Intensive IFR
Visi :
Ceiling :
>= 8 km
>= 3000ft
5 to 8 km
1000 to 3000 ft
1500m to 5 km
500 to 1000 ft
800 to 1500m
200 to 500 ft
< 800m
< 200 ft
Symbols :   Thunderstorms  Fog  Heavy snow  Heavy precipitations  Wind > 20 kt






- Airport Elevation : 881 ft


KNY0 - Fulton County

CURRENT METAR :
  • 071115Z AUTO 31006KT 7SM BKN021 BKN025 OVC055 M08/M08 A3023 RMK AO2

EXPIRED METARs :
  • 071055Z AUTO 30005KT 10SM SCT021 SCT032 OVC055 M08/M09 A3022 RMK AO2
  • 071035Z AUTO 29006KT 10SM SCT032 SCT046 OVC055 M09/M09 A3022 RMK AO2
  • 071016Z AUTO 30005KT 10SM SCT041 SCT049 OVC065 M09/M09 A3021 RMK AO2
  • 070955Z AUTO 30004KT 10SM SCT042 BKN050 OVC065 M09/M09 A3021 RMK AO2
  • 070935Z AUTO 30004KT 10SM OVC065 M08/M09 A3021 RMK AO2
  • 070916Z AUTO 30004KT 10SM OVC075 M08/M09 A3020 RMK AO2
  • 070856Z AUTO 29007KT 10SM SCT050 OVC075 M09/M09 A3020 RMK AO2
  • 070835Z AUTO 28007KT 10SM SCT055 BKN075 M09/M09 A3019 RMK AO2

TAF N/A



MET'MAP, your aeronautical weather chart ! - Copyright ORBIFLY December 2007 - Disclaimer

ORBIFLY MET'MAP TEAM :

Programming & Development : Alexandra Zaïnal
Concept & original design : Baudouin d'Aumeries
Assistance for programming : Marc-Olivier Méhu
Technical & hardware support : Manuel Goepfert

Contact : metmap@orbifly.com




SOURCES & CREDITS :

   NOAA